createdAt,value
2023-05-11T00:01:54.174Z,9.35
2023-05-11T00:04:21.575Z,9.27
2023-05-11T00:06:48.709Z,10.15
2023-05-11T00:09:16.047Z,6.57
2023-05-11T00:11:43.151Z,5.85
2023-05-11T00:14:10.463Z,4.82
2023-05-11T00:16:37.555Z,3.80
2023-05-11T00:19:04.702Z,3.20
2023-05-11T00:21:32.444Z,5.80
2023-05-11T00:23:59.542Z,3.00
2023-05-11T00:26:26.957Z,3.45
2023-05-11T00:28:54.150Z,3.13
2023-05-11T00:31:21.403Z,3.38
2023-05-11T00:33:48.539Z,3.13
2023-05-11T00:36:15.766Z,4.35
2023-05-11T00:38:42.864Z,3.75
2023-05-11T00:41:09.929Z,3.40
2023-05-11T00:43:37.089Z,5.45
2023-05-11T00:46:04.753Z,3.00
2023-05-11T00:48:32.620Z,3.90
2023-05-11T00:51:00.457Z,4.10
2023-05-11T00:53:27.787Z,2.85
2023-05-11T00:55:55.065Z,3.40
2023-05-11T00:58:22.213Z,4.28
2023-05-11T01:00:49.280Z,3.45
2023-05-11T01:03:17.577Z,6.22
2023-05-11T01:05:48.418Z,4.10
2023-05-11T01:08:36.312Z,5.53
2023-05-11T01:11:12.207Z,4.40
2023-05-11T01:13:44.949Z,4.85
2023-05-11T01:16:24.724Z,4.65
2023-05-11T01:19:29.909Z,6.10
2023-05-11T01:21:57.897Z,5.47
2023-05-11T01:25:05.891Z,4.50
2023-05-11T01:27:54.205Z,4.00
2023-05-11T01:30:39.357Z,4.75
2023-05-11T01:33:12.527Z,5.78
2023-05-11T01:35:46.140Z,6.83
2023-05-11T01:38:16.019Z,4.43
2023-05-11T01:40:50.993Z,7.03
2023-05-11T01:43:21.984Z,3.58
2023-05-11T01:45:51.498Z,5.50
2023-05-11T01:48:24.227Z,4.45
2023-05-11T01:50:52.648Z,4.53
2023-05-11T01:53:20.763Z,5.05
2023-05-11T01:55:49.784Z,5.50
2023-05-11T01:58:18.796Z,4.47
2023-05-11T02:00:46.451Z,5.95
2023-05-11T02:03:15.775Z,7.55
2023-05-11T02:05:44.183Z,5.45
2023-05-11T02:08:12.586Z,5.00
2023-05-11T02:10:41.850Z,5.38
2023-05-11T02:13:10.326Z,4.72
2023-05-11T02:15:43.258Z,8.32
2023-05-11T02:18:13.445Z,3.88
2023-05-11T02:20:44.178Z,9.40
2023-05-11T02:23:11.835Z,6.03
2023-05-11T02:25:41.164Z,6.45
2023-05-11T02:28:08.735Z,6.75
2023-05-11T02:30:44.819Z,5.97
2023-05-11T02:33:19.924Z,8.70
2023-05-11T02:35:49.128Z,6.97
2023-05-11T02:38:17.878Z,6.85
2023-05-11T02:40:51.721Z,6.13
2023-05-11T02:43:25.493Z,7.68
2023-05-11T02:45:58.746Z,5.32
2023-05-11T02:48:30.506Z,5.55
2023-05-11T02:51:00.537Z,7.25
2023-05-11T02:53:29.369Z,5.78
2023-05-11T02:55:57.794Z,9.45
2023-05-11T02:58:25.907Z,7.68
2023-05-11T03:00:53.437Z,6.47
2023-05-11T03:03:20.825Z,6.85
2023-05-11T03:05:47.984Z,8.15
2023-05-11T03:08:15.145Z,7.35
2023-05-11T03:10:42.651Z,7.55
2023-05-11T03:13:10.235Z,8.70
2023-05-11T03:15:38.951Z,8.10
2023-05-11T03:18:07.969Z,7.97
2023-05-11T03:20:37.658Z,10.00
2023-05-11T03:23:06.623Z,8.48
2023-05-11T03:25:34.290Z,9.60
2023-05-11T03:28:03.303Z,14.23
2023-05-11T03:30:31.016Z,12.73
2023-05-11T03:32:58.134Z,10.40
2023-05-11T03:35:27.898Z,16.75
2023-05-11T03:37:56.642Z,13.93
2023-05-11T03:40:24.766Z,11.98
2023-05-11T03:42:55.539Z,15.38
2023-05-11T03:45:23.678Z,14.63
2023-05-11T03:47:52.416Z,15.63
2023-05-11T03:50:21.463Z,18.90
2023-05-11T03:52:49.329Z,16.20
2023-05-11T03:55:16.551Z,15.80
2023-05-11T03:57:43.750Z,17.10
2023-05-11T04:00:11.984Z,22.60
2023-05-11T04:02:39.436Z,20.85
2023-05-11T04:05:11.820Z,23.98
2023-05-11T04:07:39.719Z,21.40
2023-05-11T04:10:07.524Z,18.60
2023-05-11T04:12:34.642Z,18.67
2023-05-11T04:15:01.968Z,18.70
2023-05-11T04:17:29.062Z,18.00
2023-05-11T04:19:56.258Z,19.02
2023-05-11T04:22:23.554Z,17.40
2023-05-11T04:24:50.658Z,20.95
2023-05-11T04:27:17.771Z,20.73
2023-05-11T04:29:45.204Z,22.20
2023-05-11T04:32:12.341Z,19.65
2023-05-11T04:34:39.726Z,20.20
2023-05-11T04:37:07.662Z,22.60
2023-05-11T04:39:35.123Z,24.55
2023-05-11T04:42:02.452Z,22.20
2023-05-11T04:44:29.612Z,22.17
2023-05-11T04:46:57.812Z,17.77
2023-05-11T04:49:25.030Z,18.90
2023-05-11T04:51:52.288Z,18.50
2023-05-11T04:54:19.368Z,19.38
2023-05-11T04:56:46.534Z,18.00
2023-05-11T04:59:13.653Z,21.75
2023-05-11T05:01:40.773Z,19.73
2023-05-11T05:04:08.867Z,19.50
2023-05-11T05:06:38.545Z,19.02
2023-05-11T05:09:05.645Z,22.85
2023-05-11T05:11:32.839Z,22.52
2023-05-11T05:13:59.927Z,22.80
2023-05-11T05:16:27.048Z,22.73
2023-05-11T05:18:54.223Z,23.90
2023-05-11T05:21:21.371Z,24.88
2023-05-11T05:23:48.499Z,25.65
2023-05-11T05:26:15.813Z,24.17
2023-05-11T05:28:42.876Z,23.70
2023-05-11T05:31:10.108Z,22.25
2023-05-11T05:33:37.253Z,25.67
2023-05-11T05:36:04.581Z,26.70
2023-05-11T05:38:31.822Z,25.85
2023-05-11T05:40:59.460Z,25.23
2023-05-11T05:43:26.486Z,26.85
2023-05-11T05:45:53.547Z,24.65
2023-05-11T05:48:20.708Z,24.02
2023-05-11T05:50:47.946Z,24.88
2023-05-11T05:53:15.028Z,24.30
2023-05-11T05:55:42.275Z,24.23
2023-05-11T05:58:09.323Z,26.48
2023-05-11T06:00:36.657Z,28.27
2023-05-11T06:03:04.253Z,25.17
2023-05-11T06:05:31.377Z,27.63
2023-05-11T06:08:09.912Z,26.02
2023-05-11T06:10:38.094Z,25.95
2023-05-11T06:13:05.267Z,29.08
2023-05-11T06:15:32.417Z,26.55
2023-05-11T06:17:59.575Z,28.25
2023-05-11T06:20:26.896Z,25.98
2023-05-11T06:22:53.950Z,26.95
2023-05-11T06:25:21.125Z,29.27
2023-05-11T06:27:48.188Z,24.98
2023-05-11T06:30:15.774Z,29.52
2023-05-11T06:32:42.968Z,30.95
2023-05-11T06:35:10.434Z,33.53
2023-05-11T06:37:37.500Z,26.70
2023-05-11T06:40:04.904Z,28.35
2023-05-11T06:42:31.984Z,25.48
2023-05-11T06:44:59.205Z,26.67
2023-05-11T06:47:27.047Z,26.40
2023-05-11T06:49:54.498Z,26.60
2023-05-11T06:52:21.607Z,24.23
2023-05-11T06:54:48.703Z,22.35
2023-05-11T06:57:15.777Z,23.95
2023-05-11T06:59:42.816Z,23.83
2023-05-11T07:02:10.112Z,22.33
2023-05-11T07:04:37.488Z,22.98
2023-05-11T07:07:04.717Z,24.50
2023-05-11T07:09:31.809Z,21.45
2023-05-11T07:11:59.006Z,23.48
2023-05-11T07:14:26.102Z,21.65
2023-05-11T07:16:53.298Z,20.35
2023-05-11T07:19:20.368Z,20.27
2023-05-11T07:21:47.497Z,23.92
2023-05-11T07:24:14.649Z,21.50
2023-05-11T07:26:41.703Z,19.08
2023-05-11T07:29:08.819Z,21.17
2023-05-11T07:31:36.626Z,19.27
2023-05-11T07:34:04.338Z,23.17
2023-05-11T07:36:31.774Z,22.38
2023-05-11T07:38:59.737Z,21.98
2023-05-11T07:41:27.369Z,18.90
2023-05-11T07:43:54.942Z,17.13
2023-05-11T07:46:22.416Z,19.70
2023-05-11T07:48:51.645Z,20.92
2023-05-11T07:51:24.836Z,21.75
2023-05-11T07:53:52.292Z,20.35
2023-05-11T07:56:20.044Z,22.83
2023-05-11T07:58:47.044Z,24.67
2023-05-11T08:01:14.140Z,24.00
2023-05-11T08:03:41.369Z,21.15
2023-05-11T08:06:14.162Z,21.58
2023-05-11T08:08:41.493Z,24.75
2023-05-11T08:11:09.341Z,21.77
2023-05-11T08:13:37.538Z,25.48
2023-05-11T08:16:04.949Z,24.77
2023-05-11T08:18:32.232Z,23.75
2023-05-11T08:20:59.565Z,29.33
2023-05-11T08:23:26.659Z,23.08
2023-05-11T08:25:56.575Z,24.45
2023-05-11T08:28:23.659Z,25.08
2023-05-11T08:30:57.963Z,25.38
2023-05-11T08:33:37.356Z,23.08
2023-05-11T08:36:07.145Z,20.33
2023-05-11T08:38:35.905Z,21.63
2023-05-11T08:41:03.516Z,22.13
2023-05-11T08:43:32.568Z,19.05
2023-05-11T08:46:03.308Z,21.02
2023-05-11T08:48:32.138Z,17.38
2023-05-11T08:50:59.889Z,17.73
2023-05-11T08:53:26.957Z,18.50
2023-05-11T08:55:57.091Z,19.23
2023-05-11T08:58:24.408Z,16.05
2023-05-11T09:00:52.332Z,16.48
2023-05-11T09:03:20.088Z,13.85
2023-05-11T09:05:47.969Z,15.35
2023-05-11T09:08:17.774Z,14.70
2023-05-11T09:10:45.404Z,13.50
2023-05-11T09:13:12.876Z,11.75
2023-05-11T09:15:40.073Z,13.38
2023-05-11T09:18:07.743Z,13.27
2023-05-11T09:20:35.509Z,14.95
2023-05-11T09:23:02.829Z,14.80
2023-05-11T09:25:33.738Z,19.20
2023-05-11T09:28:01.053Z,16.98
2023-05-11T09:30:28.527Z,15.02
2023-05-11T09:32:59.397Z,14.68
2023-05-11T09:35:34.839Z,16.80
2023-05-11T09:38:07.928Z,15.95
2023-05-11T09:40:55.851Z,18.65
2023-05-11T09:43:28.495Z,17.27
2023-05-11T09:45:57.609Z,15.13
2023-05-11T09:48:26.267Z,17.70
2023-05-11T09:51:07.948Z,15.90
2023-05-11T09:53:44.762Z,16.60
2023-05-11T09:56:15.733Z,13.80
2023-05-11T09:58:50.973Z,16.08
2023-05-11T10:01:29.235Z,14.93
2023-05-11T10:04:08.970Z,16.88
2023-05-11T10:06:55.112Z,17.83
2023-05-11T10:09:26.805Z,15.25
2023-05-11T10:11:55.667Z,13.80
2023-05-11T10:14:24.416Z,15.98
2023-05-11T10:16:52.354Z,15.80
2023-05-11T10:19:19.980Z,14.73
2023-05-11T10:21:47.792Z,15.65
2023-05-11T10:24:19.591Z,15.70
2023-05-11T10:26:48.862Z,15.40
2023-05-11T10:29:19.424Z,16.35
2023-05-11T10:31:48.458Z,14.63
2023-05-11T10:34:16.745Z,17.10
2023-05-11T10:36:46.461Z,16.25
2023-05-11T10:39:13.542Z,16.33
2023-05-11T10:42:11.532Z,13.93
2023-05-11T10:44:55.137Z,16.60
2023-05-11T10:47:47.022Z,15.88
2023-05-11T10:50:25.695Z,17.55
2023-05-11T10:53:07.768Z,15.88
2023-05-11T10:55:46.254Z,11.90
2023-05-11T10:58:19.657Z,13.60
2023-05-11T11:01:11.908Z,11.02
2023-05-11T11:03:39.194Z,10.85
2023-05-11T11:06:06.555Z,12.13
2023-05-11T11:08:57.053Z,11.70
2023-05-11T11:11:32.345Z,14.68
2023-05-11T11:14:02.783Z,12.38
2023-05-11T11:16:31.051Z,15.77
2023-05-11T11:19:29.763Z,13.27
2023-05-11T11:22:01.257Z,15.02
2023-05-11T11:24:44.765Z,12.70
2023-05-11T11:27:12.415Z,12.37
2023-05-11T11:29:40.505Z,11.85
2023-05-11T11:32:25.669Z,11.73
2023-05-11T11:34:52.765Z,15.35
2023-05-11T11:37:22.375Z,10.25
2023-05-11T11:39:53.707Z,12.63
2023-05-11T11:42:42.901Z,13.00
2023-05-11T11:45:31.224Z,13.13
2023-05-11T11:48:08.317Z,12.75
2023-05-11T11:50:35.689Z,12.82
2023-05-11T11:53:04.120Z,13.32
2023-05-11T11:55:51.997Z,13.52
2023-05-11T11:58:43.659Z,13.35
2023-05-11T12:01:19.672Z,12.20
2023-05-11T12:04:04.881Z,13.45
2023-05-11T12:06:41.178Z,12.77
2023-05-11T12:09:08.858Z,13.38
2023-05-11T12:11:40.479Z,14.23
2023-05-11T12:14:10.447Z,14.15
2023-05-11T12:16:37.552Z,14.43
2023-05-11T12:19:04.826Z,15.10
2023-05-11T12:21:32.657Z,14.43
2023-05-11T12:24:02.019Z,14.50
2023-05-11T12:26:30.860Z,15.18
2023-05-11T12:29:09.306Z,13.32
2023-05-11T12:31:41.023Z,15.35
2023-05-11T12:34:15.724Z,13.82
2023-05-11T12:36:44.335Z,12.43
2023-05-11T12:39:18.975Z,14.50
2023-05-11T12:41:48.158Z,12.23
2023-05-11T12:44:17.296Z,19.33
2023-05-11T12:46:48.769Z,15.40
2023-05-11T12:49:26.950Z,13.93
2023-05-11T12:52:00.645Z,15.82
2023-05-11T12:54:38.924Z,19.40
2023-05-11T12:57:08.272Z,15.30
2023-05-11T12:59:40.659Z,15.77
2023-05-11T13:02:18.913Z,13.70
2023-05-11T13:04:47.482Z,17.27
2023-05-11T13:07:24.539Z,16.17
2023-05-11T13:09:59.616Z,16.77
2023-05-11T13:12:27.695Z,14.57
2023-05-11T13:15:13.464Z,16.23
2023-05-11T13:17:42.133Z,15.02
2023-05-11T13:20:30.000Z,16.83
2023-05-11T13:23:08.705Z,18.77
2023-05-11T13:25:56.153Z,17.60
2023-05-11T13:28:24.968Z,12.90
2023-05-11T13:30:58.486Z,15.55
2023-05-11T13:33:25.604Z,13.80
2023-05-11T13:35:52.665Z,16.95
2023-05-11T13:38:19.751Z,13.32
2023-05-11T13:40:47.126Z,13.57
2023-05-11T13:43:14.156Z,16.13
2023-05-11T13:45:41.482Z,15.32
2023-05-11T13:48:08.835Z,14.98
2023-05-11T13:50:36.227Z,15.43
2023-05-11T13:53:03.330Z,17.30
2023-05-11T13:55:30.906Z,17.23
2023-05-11T13:57:58.254Z,18.52
2023-05-11T14:00:25.433Z,19.00
2023-05-11T14:02:53.154Z,19.65
2023-05-11T14:05:20.542Z,18.80
2023-05-11T14:07:51.420Z,20.75
2023-05-11T14:10:21.101Z,17.15
2023-05-11T14:12:48.157Z,15.68
2023-05-11T14:15:15.184Z,19.23
2023-05-11T14:17:43.526Z,19.85
2023-05-11T14:20:15.480Z,23.52
2023-05-11T14:22:42.696Z,23.10
2023-05-11T14:25:09.876Z,22.30
2023-05-11T14:27:37.317Z,24.33
2023-05-11T14:30:04.771Z,23.50
2023-05-11T14:32:31.947Z,21.77
2023-05-11T14:34:59.104Z,22.02
2023-05-11T14:37:26.191Z,23.17
2023-05-11T14:39:53.295Z,19.27
2023-05-11T14:42:20.526Z,25.13
2023-05-11T14:44:49.168Z,25.92
2023-05-11T14:47:16.348Z,20.48
2023-05-11T14:49:43.424Z,27.45
2023-05-11T14:52:10.873Z,23.65
2023-05-11T14:54:38.035Z,26.77
2023-05-11T14:57:05.893Z,22.95
2023-05-11T14:59:33.053Z,29.75
2023-05-11T15:02:00.545Z,24.08
2023-05-11T15:04:27.813Z,23.65
2023-05-11T15:06:55.380Z,23.77
2023-05-11T15:09:24.137Z,30.40
2023-05-11T15:11:51.298Z,30.50
2023-05-11T15:14:18.499Z,25.38
2023-05-11T15:16:46.380Z,24.42
2023-05-11T15:19:13.846Z,29.75
2023-05-11T15:21:40.927Z,28.45
2023-05-11T15:24:10.670Z,29.05
2023-05-11T15:26:38.479Z,28.20
2023-05-11T15:29:05.680Z,27.80
2023-05-11T15:31:33.308Z,29.60
2023-05-11T15:34:01.361Z,27.00
2023-05-11T15:36:29.860Z,27.00
2023-05-11T15:38:57.113Z,29.20
2023-05-11T15:41:24.251Z,24.30
2023-05-11T15:43:52.498Z,32.40
2023-05-11T15:46:19.715Z,27.20
2023-05-11T15:48:46.968Z,26.45
2023-05-11T15:51:14.455Z,30.75
2023-05-11T15:53:41.502Z,29.50
2023-05-11T15:56:09.654Z,26.27
2023-05-11T15:58:36.753Z,31.80
2023-05-11T16:01:03.915Z,27.52
2023-05-11T16:03:31.067Z,33.20
2023-05-11T16:05:58.274Z,29.27
2023-05-11T16:08:25.452Z,30.50
2023-05-11T16:10:52.752Z,28.95
2023-05-11T16:13:19.843Z,32.72
2023-05-11T16:15:46.908Z,28.17
2023-05-11T16:18:14.462Z,28.17
2023-05-11T16:20:42.249Z,23.48
2023-05-11T16:23:09.492Z,27.42
2023-05-11T16:25:36.518Z,26.08
2023-05-11T16:28:03.690Z,22.05
2023-05-11T16:30:31.420Z,22.40
2023-05-11T16:32:58.869Z,22.33
2023-05-11T16:35:26.041Z,19.10
2023-05-11T16:37:54.146Z,15.88
2023-05-11T16:40:21.713Z,18.88
2023-05-11T16:42:49.228Z,21.20
2023-05-11T16:45:16.783Z,24.83
2023-05-11T16:47:46.911Z,26.42
2023-05-11T16:50:19.121Z,25.65
2023-05-11T16:52:46.386Z,33.60
2023-05-11T16:55:16.231Z,28.92
2023-05-11T16:57:44.660Z,33.45
2023-05-11T17:00:13.596Z,21.70
2023-05-11T17:02:41.613Z,19.02
2023-05-11T17:05:10.738Z,15.15
2023-05-11T17:07:38.191Z,12.38
2023-05-11T17:10:07.467Z,14.27
2023-05-11T17:12:35.955Z,12.15
2023-05-11T17:15:03.955Z,14.27
2023-05-11T17:17:30.995Z,12.57
2023-05-11T17:19:58.196Z,12.55
2023-05-11T17:22:26.246Z,14.32
2023-05-11T17:24:53.353Z,13.13
2023-05-11T17:27:20.472Z,12.77
2023-05-11T17:29:47.737Z,13.95
2023-05-11T17:32:14.918Z,13.93
2023-05-11T17:34:42.197Z,12.95
2023-05-11T17:37:17.369Z,14.52
2023-05-11T17:39:51.594Z,13.40
2023-05-11T17:42:22.213Z,14.23
2023-05-11T17:44:49.277Z,15.27
2023-05-11T17:47:16.372Z,15.35
2023-05-11T17:49:43.556Z,15.00
2023-05-11T17:52:10.632Z,17.90
2023-05-11T17:54:37.851Z,15.80
2023-05-11T17:57:05.401Z,17.00
2023-05-11T17:59:32.649Z,16.52
2023-05-11T18:02:01.514Z,18.55
2023-05-11T18:04:29.604Z,18.55
2023-05-11T18:06:57.412Z,17.92
2023-05-11T18:09:24.534Z,18.88
2023-05-11T18:11:51.700Z,16.35
2023-05-11T18:14:18.821Z,19.35
2023-05-11T18:16:46.772Z,21.63
2023-05-11T18:19:13.818Z,22.35
2023-05-11T18:21:40.962Z,16.63
2023-05-11T18:24:15.844Z,21.17
2023-05-11T18:26:42.896Z,19.58
2023-05-11T18:29:11.193Z,19.83
2023-05-11T18:31:38.243Z,20.90
2023-05-11T18:34:09.025Z,24.27
2023-05-11T18:36:36.300Z,23.48
2023-05-11T18:39:04.899Z,28.13
2023-05-11T18:41:32.046Z,24.25
2023-05-11T18:44:00.288Z,28.38
2023-05-11T18:46:28.859Z,26.98
2023-05-11T18:48:55.906Z,30.60
2023-05-11T18:51:23.055Z,34.72
2023-05-11T18:53:51.636Z,30.92
2023-05-11T18:56:18.729Z,28.90
2023-05-11T18:58:46.632Z,33.58
2023-05-11T19:01:16.088Z,27.15
2023-05-11T19:03:43.307Z,30.23
2023-05-11T19:06:10.454Z,34.83
2023-05-11T19:08:37.678Z,33.17
2023-05-11T19:11:09.657Z,35.38
2023-05-11T19:13:37.103Z,29.02
2023-05-11T19:16:04.884Z,28.50
2023-05-11T19:18:35.605Z,31.33
2023-05-11T19:21:04.979Z,33.33
2023-05-11T19:23:33.294Z,31.10
2023-05-11T19:26:00.771Z,29.30
2023-05-11T19:28:27.943Z,35.38
2023-05-11T19:31:05.957Z,31.48
2023-05-11T19:33:34.156Z,33.15
2023-05-11T19:36:01.516Z,37.35
2023-05-11T19:38:29.462Z,39.67
2023-05-11T19:40:56.714Z,36.83
2023-05-11T19:43:23.881Z,35.72
2023-05-11T19:45:51.067Z,39.88
2023-05-11T19:48:19.160Z,32.22
2023-05-11T19:50:47.965Z,34.45
2023-05-11T19:53:17.929Z,32.55
2023-05-11T19:55:47.207Z,38.17
2023-05-11T19:58:15.132Z,69.13
2023-05-11T20:00:42.601Z,40.58
2023-05-11T20:03:10.411Z,32.10
2023-05-11T20:05:37.758Z,29.17
2023-05-11T20:08:07.880Z,26.33
2023-05-11T20:10:35.959Z,30.67
2023-05-11T20:13:08.170Z,30.45
2023-05-11T20:15:35.749Z,68.93
2023-05-11T20:18:03.268Z,98.88
2023-05-11T20:20:31.792Z,55.05
2023-05-11T20:23:00.025Z,73.57
2023-05-11T20:25:27.158Z,54.67
2023-05-11T20:27:54.296Z,42.03
2023-05-11T20:30:21.439Z,36.35
2023-05-11T20:35:23.355Z,25.08
2023-05-11T20:37:50.931Z,28.73
2023-05-11T20:40:20.225Z,30.65
2023-05-11T20:42:47.558Z,30.70
2023-05-11T20:45:15.503Z,30.85
2023-05-11T20:47:42.860Z,32.60
2023-05-11T20:50:10.323Z,32.85
2023-05-11T20:52:37.727Z,37.72
2023-05-11T20:55:05.164Z,44.47
2023-05-11T20:57:32.176Z,43.42
2023-05-11T21:02:29.387Z,49.65
2023-05-11T21:05:02.144Z,50.60
2023-05-11T21:07:30.162Z,48.72
2023-05-11T21:09:57.364Z,46.05
2023-05-11T21:12:24.499Z,45.20
2023-05-11T21:14:51.531Z,37.55
2023-05-11T21:17:18.786Z,38.28
2023-05-11T21:19:46.765Z,42.55
2023-05-11T21:22:13.791Z,40.20
2023-05-11T21:24:41.353Z,37.13
2023-05-11T21:27:08.466Z,36.67
2023-05-11T21:29:36.156Z,38.00
2023-05-11T21:32:03.520Z,38.00
2023-05-11T21:34:30.593Z,37.25
2023-05-11T21:36:57.702Z,35.15
2023-05-11T21:39:25.251Z,35.88
2023-05-11T21:41:52.401Z,37.47
2023-05-11T21:44:20.543Z,34.92
2023-05-11T21:46:47.723Z,34.90
2023-05-11T21:49:14.905Z,36.55
2023-05-11T21:51:42.705Z,32.45
2023-05-11T21:54:09.822Z,32.25
2023-05-11T21:56:37.095Z,33.58
2023-05-11T21:59:04.162Z,34.22
2023-05-11T22:01:31.382Z,28.85
2023-05-11T22:04:01.187Z,33.90
2023-05-11T22:06:28.474Z,29.02
2023-05-11T22:08:55.700Z,30.15
2023-05-11T22:11:22.865Z,32.05
2023-05-11T22:13:50.114Z,37.20
2023-05-11T22:16:17.270Z,31.35
2023-05-11T22:18:44.440Z,36.75
2023-05-11T22:21:11.802Z,32.53
2023-05-11T22:23:39.051Z,34.80
2023-05-11T22:26:06.192Z,34.90
2023-05-11T22:28:33.253Z,35.78
2023-05-11T22:31:00.560Z,30.63
2023-05-11T22:33:27.605Z,32.15
2023-05-11T22:35:54.688Z,39.33
2023-05-11T22:38:21.813Z,35.22
2023-05-11T22:40:48.861Z,31.40
2023-05-11T22:43:16.136Z,31.77
2023-05-11T22:45:43.174Z,27.67
2023-05-11T22:48:10.320Z,30.65
2023-05-11T22:50:37.320Z,28.63
2023-05-11T22:53:04.725Z,28.13
2023-05-11T22:55:32.107Z,26.80
2023-05-11T22:57:59.099Z,30.17
2023-05-11T23:00:26.269Z,32.95
2023-05-11T23:02:53.428Z,30.15
2023-05-11T23:05:20.665Z,32.53
2023-05-11T23:07:47.678Z,34.05
2023-05-11T23:10:14.832Z,32.45
2023-05-11T23:12:41.869Z,36.22
2023-05-11T23:15:10.654Z,34.60
2023-05-11T23:17:38.980Z,34.92
2023-05-11T23:20:06.888Z,31.90
2023-05-11T23:22:33.931Z,35.22
2023-05-11T23:25:01.076Z,36.50
2023-05-11T23:27:28.764Z,28.48
2023-05-11T23:29:55.904Z,35.85
2023-05-11T23:32:22.979Z,35.47
2023-05-11T23:34:50.231Z,35.22
2023-05-11T23:37:17.295Z,33.53
2023-05-11T23:39:44.497Z,37.20
2023-05-11T23:42:11.622Z,39.90
2023-05-11T23:44:38.654Z,31.75
2023-05-11T23:47:06.185Z,32.53
2023-05-11T23:49:33.287Z,36.60
2023-05-11T23:52:00.349Z,37.65
2023-05-11T23:54:27.878Z,30.80
2023-05-11T23:56:55.037Z,29.13
2023-05-11T23:59:22.025Z,37.53
